createdAt,value
2022-10-16T00:03:00.457Z,8.50
2022-10-16T00:06:05.848Z,10.27
2022-10-16T00:09:09.414Z,11.97
2022-10-16T00:12:12.601Z,12.97
2022-10-16T00:15:15.897Z,10.80
2022-10-16T00:18:19.104Z,12.77
2022-10-16T00:21:26.086Z,9.97
2022-10-16T00:24:29.300Z,11.30
2022-10-16T00:27:32.562Z,11.77
2022-10-16T00:30:35.895Z,12.50
2022-10-16T00:33:41.149Z,16.80
2022-10-16T00:36:45.767Z,14.73
2022-10-16T00:39:49.220Z,15.80
2022-10-16T00:42:52.407Z,14.20
2022-10-16T00:45:55.726Z,14.97
2022-10-16T00:49:04.459Z,14.97
2022-10-16T00:52:09.179Z,14.00
2022-10-16T00:55:12.602Z,10.60
2022-10-16T00:58:15.875Z,13.80
2022-10-16T01:01:19.103Z,14.03
2022-10-16T01:04:23.523Z,13.03
2022-10-16T01:07:42.785Z,13.70
2022-10-16T01:11:00.288Z,11.17
2022-10-16T01:14:11.314Z,16.93
2022-10-16T01:17:18.215Z,16.53
2022-10-16T01:20:28.401Z,12.07
2022-10-16T01:23:46.543Z,11.60
2022-10-16T01:27:14.779Z,10.00
2022-10-16T01:30:23.299Z,13.80
2022-10-16T01:33:32.500Z,12.27
2022-10-16T01:36:41.206Z,13.17
2022-10-16T01:39:48.068Z,13.83
2022-10-16T01:46:03.443Z,11.30
2022-10-16T01:49:08.616Z,12.43
2022-10-16T01:52:15.982Z,11.73
2022-10-16T01:55:24.789Z,11.13
2022-10-16T01:58:35.702Z,9.70
2022-10-16T02:01:42.737Z,11.03
2022-10-16T02:04:49.715Z,14.07
2022-10-16T02:07:52.916Z,11.20
2022-10-16T02:10:57.136Z,11.93
2022-10-16T02:14:05.980Z,9.53
2022-10-16T02:17:13.857Z,11.17
2022-10-16T02:20:17.451Z,10.20
2022-10-16T02:23:27.585Z,10.50
2022-10-16T02:26:36.313Z,10.87
2022-10-16T02:29:46.055Z,10.60
2022-10-16T02:32:51.194Z,16.37
2022-10-16T02:35:55.963Z,11.33
2022-10-16T02:39:01.221Z,10.63
2022-10-16T02:42:04.915Z,10.73
2022-10-16T02:45:11.803Z,12.70
2022-10-16T02:48:15.912Z,13.23
2022-10-16T02:51:19.194Z,20.73
2022-10-16T02:54:22.482Z,17.70
2022-10-16T02:57:25.922Z,17.83
2022-10-16T03:00:30.809Z,25.13
2022-10-16T03:03:34.019Z,19.87
2022-10-16T03:06:37.340Z,17.77
2022-10-16T03:09:40.543Z,13.43
2022-10-16T03:12:43.830Z,13.50
2022-10-16T03:15:48.963Z,16.17
2022-10-16T03:18:52.432Z,21.67
2022-10-16T03:21:55.639Z,13.57
2022-10-16T03:24:58.858Z,11.60
2022-10-16T03:28:02.126Z,16.77
2022-10-16T03:31:07.022Z,18.50
2022-10-16T03:34:10.264Z,23.03
2022-10-16T03:37:13.728Z,26.97
2022-10-16T03:40:17.521Z,30.50
2022-10-16T03:43:20.701Z,30.27
2022-10-16T03:46:25.358Z,33.63
2022-10-16T03:49:28.584Z,29.13
2022-10-16T03:52:33.177Z,27.30
2022-10-16T03:55:37.559Z,22.63
2022-10-16T03:58:40.762Z,27.23
2022-10-16T04:01:45.451Z,35.73
2022-10-16T04:04:48.641Z,38.37
2022-10-16T04:07:51.969Z,32.77
2022-10-16T04:10:55.190Z,26.47
2022-10-16T04:13:58.428Z,34.17
2022-10-16T04:17:03.128Z,35.30
2022-10-16T04:20:07.498Z,36.73
2022-10-16T04:23:10.840Z,28.70
2022-10-16T04:26:14.193Z,26.23
2022-10-16T04:29:17.343Z,22.37
2022-10-16T04:32:22.133Z,25.10
2022-10-16T04:35:25.346Z,21.00
2022-10-16T04:38:28.929Z,20.03
2022-10-16T04:41:32.295Z,19.03
2022-10-16T04:44:35.570Z,22.07
2022-10-16T04:47:40.232Z,16.87
2022-10-16T04:50:43.637Z,18.67
2022-10-16T04:53:46.863Z,15.10
2022-10-16T04:56:51.889Z,11.17
2022-10-16T04:59:56.203Z,11.03
2022-10-16T05:03:01.967Z,8.30
2022-10-16T05:06:08.008Z,9.57
2022-10-16T05:09:11.930Z,11.40
2022-10-16T05:12:15.149Z,9.57
2022-10-16T05:15:18.389Z,12.97
2022-10-16T05:18:23.067Z,12.00
2022-10-16T05:21:26.231Z,10.33
2022-10-16T05:24:29.511Z,13.93
2022-10-16T05:27:32.694Z,14.93
2022-10-16T05:30:35.947Z,12.90
2022-10-16T05:33:40.632Z,13.87
2022-10-16T05:36:46.288Z,9.50
2022-10-16T05:39:49.519Z,9.17
2022-10-16T05:42:57.309Z,10.90
2022-10-16T05:46:02.331Z,12.60
2022-10-16T05:49:07.030Z,10.57
2022-10-16T05:52:10.212Z,10.73
2022-10-16T05:55:13.368Z,12.23
2022-10-16T05:58:16.580Z,10.77
2022-10-16T06:01:21.908Z,11.93
2022-10-16T06:04:26.594Z,8.53
2022-10-16T06:07:29.977Z,7.87
2022-10-16T06:10:33.175Z,12.43
2022-10-16T06:13:36.606Z,7.40
2022-10-16T06:16:40.116Z,13.00
2022-10-16T06:19:44.706Z,8.67
2022-10-16T06:22:47.928Z,10.63
2022-10-16T06:25:51.217Z,11.00
2022-10-16T06:28:56.791Z,10.13
2022-10-16T06:32:00.021Z,10.23
2022-10-16T06:35:04.836Z,15.73
2022-10-16T06:38:08.076Z,14.87
2022-10-16T06:41:13.532Z,14.20
2022-10-16T06:44:16.768Z,12.63
2022-10-16T06:47:20.029Z,11.30
2022-10-16T06:50:24.733Z,17.37
2022-10-16T06:53:29.495Z,11.60
2022-10-16T06:56:33.674Z,8.57
2022-10-16T06:59:36.920Z,12.23
2022-10-16T07:02:42.493Z,8.87
2022-10-16T07:05:47.148Z,9.47
2022-10-16T07:08:50.929Z,10.13
2022-10-16T07:11:54.460Z,10.53
2022-10-16T07:14:57.749Z,12.13
2022-10-16T07:18:01.043Z,12.20
2022-10-16T07:21:11.200Z,13.07
2022-10-16T07:24:16.515Z,9.60
2022-10-16T07:27:19.782Z,12.60
2022-10-16T07:30:23.072Z,9.73
2022-10-16T07:33:26.383Z,10.73
2022-10-16T07:36:33.222Z,9.50
2022-10-16T07:39:36.508Z,15.37
2022-10-16T07:42:39.756Z,12.10
2022-10-16T07:45:50.466Z,14.00
2022-10-16T07:48:54.255Z,12.27
2022-10-16T07:51:58.904Z,13.20
2022-10-16T07:55:02.115Z,11.53
2022-10-16T07:58:05.762Z,9.17
2022-10-16T08:01:10.845Z,10.23
2022-10-16T08:04:14.059Z,11.47
2022-10-16T08:07:18.899Z,12.20
2022-10-16T08:10:26.640Z,12.17
2022-10-16T08:13:29.897Z,15.43
2022-10-16T08:16:33.387Z,9.50
2022-10-16T08:19:36.617Z,12.53
2022-10-16T08:22:41.655Z,9.90
2022-10-16T08:25:44.943Z,11.77
2022-10-16T08:28:48.249Z,11.23
2022-10-16T08:31:51.602Z,10.60
2022-10-16T08:34:54.851Z,11.03
2022-10-16T08:38:01.544Z,7.80
2022-10-16T08:41:39.350Z,9.48
2022-10-16T08:45:18.308Z,9.02
2022-10-16T08:48:27.732Z,11.27
2022-10-16T08:51:37.038Z,11.52
2022-10-16T08:54:48.033Z,10.63
2022-10-16T08:57:51.708Z,11.57
2022-10-16T09:00:57.351Z,11.18
2022-10-16T09:04:45.819Z,7.45
2022-10-16T09:07:57.506Z,9.23
2022-10-16T09:11:11.216Z,8.18
2022-10-16T09:14:37.353Z,7.03
2022-10-16T09:17:49.690Z,6.97
2022-10-16T09:20:59.417Z,8.52
2022-10-16T09:24:12.679Z,9.02
2022-10-16T09:27:17.726Z,8.80
2022-10-16T09:30:23.250Z,8.85
2022-10-16T09:33:38.147Z,5.40
2022-10-16T09:36:45.474Z,6.05
2022-10-16T09:39:54.785Z,6.13
2022-10-16T09:43:08.234Z,4.75
2022-10-16T09:46:39.074Z,6.10
2022-10-16T09:49:54.210Z,7.70
2022-10-16T09:53:08.230Z,5.13
2022-10-16T09:56:15.362Z,5.68
2022-10-16T09:59:22.307Z,6.78
2022-10-16T10:02:33.081Z,4.72
2022-10-16T10:05:36.590Z,4.80
2022-10-16T10:08:47.045Z,4.50
2022-10-16T10:11:56.269Z,5.05
2022-10-16T10:15:08.515Z,5.43
2022-10-16T10:18:21.076Z,7.05
2022-10-16T10:21:24.485Z,10.57
2022-10-16T10:24:27.928Z,6.28
2022-10-16T10:27:42.140Z,7.13
2022-10-16T10:30:56.353Z,8.00
2022-10-16T10:34:08.024Z,5.68
2022-10-16T10:37:26.348Z,6.95
2022-10-16T10:40:42.080Z,7.70
2022-10-16T10:43:57.925Z,5.20
2022-10-16T10:47:11.627Z,6.80
2022-10-16T10:50:24.081Z,6.70
2022-10-16T10:53:38.751Z,6.10
2022-10-16T10:56:49.602Z,8.25
2022-10-16T11:00:10.555Z,5.68
2022-10-16T11:03:32.698Z,10.85
2022-10-16T11:06:39.359Z,7.65
2022-10-16T11:09:48.044Z,7.45
2022-10-16T11:12:55.136Z,5.60
2022-10-16T11:16:01.447Z,7.55
2022-10-16T11:19:15.313Z,6.80
2022-10-16T11:22:22.962Z,7.28
2022-10-16T11:25:34.075Z,5.97
2022-10-16T11:28:44.252Z,7.22
2022-10-16T11:31:52.173Z,4.90
2022-10-16T11:35:02.276Z,6.85
2022-10-16T11:38:12.525Z,8.13
2022-10-16T11:41:24.698Z,4.70
2022-10-16T11:44:44.707Z,7.28
2022-10-16T11:47:59.229Z,5.97
2022-10-16T11:51:11.755Z,6.18
2022-10-16T11:54:23.692Z,6.32
2022-10-16T11:57:30.322Z,6.85
2022-10-16T12:00:41.038Z,7.65
2022-10-16T12:03:51.357Z,6.43
2022-10-16T12:07:02.125Z,5.65
2022-10-16T12:10:13.219Z,5.28
2022-10-16T12:13:33.810Z,4.97
2022-10-16T12:16:40.050Z,4.97
2022-10-16T12:19:43.316Z,6.93
2022-10-16T12:22:55.174Z,4.82
2022-10-16T12:26:00.676Z,5.35
2022-10-16T12:29:16.753Z,5.97
2022-10-16T12:32:47.354Z,7.90
2022-10-16T12:35:52.166Z,6.03
2022-10-16T12:38:57.176Z,6.53
2022-10-16T12:42:05.738Z,13.10
2022-10-16T12:45:28.150Z,6.38
2022-10-16T12:48:42.332Z,7.03
2022-10-16T12:51:52.680Z,9.13
2022-10-16T12:55:01.961Z,7.93
2022-10-16T12:58:17.317Z,10.05
2022-10-16T13:01:40.782Z,6.47
2022-10-16T13:05:11.161Z,8.73
2022-10-16T13:08:39.954Z,6.30
2022-10-16T13:12:01.518Z,8.00
2022-10-16T13:15:19.410Z,9.05
2022-10-16T13:18:29.053Z,9.77
2022-10-16T13:21:41.834Z,8.30
2022-10-16T13:24:55.888Z,9.02
2022-10-16T13:28:03.147Z,9.80
2022-10-16T13:31:07.133Z,5.82
2022-10-16T13:34:16.751Z,13.23
2022-10-16T13:37:21.845Z,5.15
2022-10-16T13:40:27.075Z,8.35
2022-10-16T13:43:36.626Z,6.55
2022-10-16T13:46:39.929Z,6.93
2022-10-16T13:49:43.188Z,8.85
2022-10-16T13:52:46.886Z,7.40
2022-10-16T13:55:50.144Z,10.80
2022-10-16T13:59:03.262Z,9.52
2022-10-16T14:02:19.580Z,7.65
2022-10-16T14:05:22.880Z,5.47
2022-10-16T14:08:28.003Z,8.35
2022-10-16T14:11:31.679Z,12.55
2022-10-16T14:14:42.276Z,10.80
2022-10-16T14:17:50.703Z,7.47
2022-10-16T14:20:55.702Z,7.82
2022-10-16T14:24:00.789Z,5.90
2022-10-16T14:27:04.919Z,7.60
2022-10-16T14:30:17.904Z,9.05
2022-10-16T14:33:24.975Z,10.15
2022-10-16T14:36:30.386Z,9.38
2022-10-16T14:39:33.798Z,6.15
2022-10-16T14:42:37.132Z,7.63
2022-10-16T14:45:44.076Z,7.18
2022-10-16T14:48:51.078Z,5.63
2022-10-16T14:51:54.409Z,10.50
2022-10-16T14:54:57.659Z,6.22
2022-10-16T14:58:01.142Z,6.70
2022-10-16T15:01:08.002Z,7.45
2022-10-16T15:04:14.649Z,8.52
2022-10-16T15:07:18.115Z,6.40
2022-10-16T15:10:24.074Z,9.07
2022-10-16T15:13:27.445Z,6.53
2022-10-16T15:16:32.508Z,9.65
2022-10-16T15:19:35.747Z,9.95
2022-10-16T15:22:38.936Z,10.23
2022-10-16T15:25:45.525Z,7.43
2022-10-16T15:28:48.812Z,9.50
2022-10-16T15:31:53.517Z,8.70
2022-10-16T15:34:57.519Z,9.17
2022-10-16T15:38:06.227Z,11.43
2022-10-16T15:41:12.917Z,16.23
2022-10-16T15:44:21.275Z,21.30
2022-10-16T15:47:27.826Z,9.00
2022-10-16T15:50:35.597Z,7.83
2022-10-16T15:53:48.459Z,12.50
2022-10-16T15:56:51.740Z,8.37
2022-10-16T15:59:57.724Z,11.60
2022-10-16T16:03:00.956Z,9.27
2022-10-16T16:06:07.272Z,8.40
2022-10-16T16:09:11.899Z,12.63
2022-10-16T16:12:15.169Z,7.33
2022-10-16T16:15:18.476Z,10.50
2022-10-16T16:18:21.941Z,8.23
2022-10-16T16:21:25.169Z,8.77
2022-10-16T16:24:29.855Z,12.57
2022-10-16T16:27:34.635Z,11.67
2022-10-16T16:30:37.925Z,13.50
2022-10-16T16:33:41.131Z,9.90
2022-10-16T16:36:44.348Z,11.93
2022-10-16T16:39:48.956Z,12.53
2022-10-16T16:42:52.176Z,9.73
2022-10-16T16:45:56.173Z,13.70
2022-10-16T16:49:00.406Z,11.63
2022-10-16T16:52:03.612Z,12.73
2022-10-16T16:55:09.093Z,15.13
2022-10-16T16:58:12.471Z,12.37
2022-10-16T17:01:19.935Z,16.43
2022-10-16T17:04:23.760Z,23.43
2022-10-16T17:07:28.772Z,13.83
2022-10-16T17:10:33.627Z,14.27
2022-10-16T17:13:38.460Z,14.63
2022-10-16T17:16:44.733Z,12.80
2022-10-16T17:19:48.065Z,14.07
2022-10-16T17:22:52.043Z,11.10
2022-10-16T17:25:56.916Z,12.20
2022-10-16T17:29:02.416Z,17.47
2022-10-16T17:32:06.103Z,12.50
2022-10-16T17:35:09.997Z,14.90
2022-10-16T17:38:15.263Z,21.27
2022-10-16T17:41:21.734Z,19.37
2022-10-16T17:44:24.927Z,21.07
2022-10-16T17:47:29.262Z,20.43
2022-10-16T17:50:32.504Z,28.13
2022-10-16T17:53:36.187Z,18.97
2022-10-16T17:56:43.712Z,26.97
2022-10-16T17:59:46.935Z,22.80
2022-10-16T18:02:51.348Z,26.23
2022-10-16T18:05:54.827Z,18.93
2022-10-16T18:08:59.163Z,20.70
2022-10-16T18:12:03.809Z,18.80
2022-10-16T18:15:08.462Z,24.23
2022-10-16T18:18:11.836Z,17.10
2022-10-16T18:21:17.368Z,21.80
2022-10-16T18:24:21.006Z,31.20
2022-10-16T18:27:26.144Z,25.13
2022-10-16T18:30:29.966Z,18.83
2022-10-16T18:33:34.385Z,18.60
2022-10-16T18:36:37.796Z,19.73
2022-10-16T18:39:41.115Z,22.00
2022-10-16T18:42:45.691Z,20.47
2022-10-16T18:45:57.456Z,18.47
2022-10-16T18:49:01.862Z,17.73
2022-10-16T18:52:05.779Z,13.63
2022-10-16T18:55:10.919Z,15.57
2022-10-16T18:58:15.576Z,14.37
2022-10-16T19:01:21.741Z,17.63
2022-10-16T19:04:25.135Z,17.97
2022-10-16T19:07:28.725Z,19.93
2022-10-16T19:10:32.171Z,19.50
2022-10-16T19:13:36.903Z,18.50
2022-10-16T19:16:42.887Z,21.87
2022-10-16T19:19:46.193Z,16.97
2022-10-16T19:22:54.406Z,19.57
2022-10-16T19:25:57.633Z,18.83
2022-10-16T19:29:05.818Z,16.63
2022-10-16T19:32:09.065Z,15.47
2022-10-16T19:35:12.276Z,13.77
2022-10-16T19:38:15.604Z,9.50
2022-10-16T19:41:20.305Z,14.27
2022-10-16T19:44:26.507Z,14.87
2022-10-16T19:47:29.695Z,17.83
2022-10-16T19:50:32.908Z,15.67
2022-10-16T19:53:36.121Z,15.53
2022-10-16T19:56:39.480Z,18.70
2022-10-16T19:59:45.671Z,18.03
2022-10-16T20:02:49.198Z,15.27
2022-10-16T20:05:53.479Z,23.23
2022-10-16T20:08:58.331Z,24.87
2022-10-16T20:12:01.576Z,22.40
2022-10-16T20:15:06.986Z,21.27
2022-10-16T20:18:10.279Z,25.30
2022-10-16T20:21:15.324Z,16.97
2022-10-16T20:24:19.094Z,19.37
2022-10-16T20:27:22.281Z,17.60
2022-10-16T20:30:26.924Z,19.70
2022-10-16T20:33:30.143Z,17.80
2022-10-16T20:36:34.069Z,16.40
2022-10-16T20:39:37.330Z,19.73
2022-10-16T20:42:40.644Z,18.87
2022-10-16T20:45:46.186Z,16.87
2022-10-16T20:48:49.546Z,18.37
2022-10-16T20:51:52.724Z,19.37
2022-10-16T20:54:55.985Z,17.47
2022-10-16T20:57:59.234Z,18.13
2022-10-16T21:01:08.224Z,20.03
2022-10-16T21:04:11.549Z,16.23
2022-10-16T21:07:14.817Z,19.13
2022-10-16T21:10:19.204Z,17.30
2022-10-16T21:13:24.220Z,16.23
2022-10-16T21:16:31.064Z,16.23
2022-10-16T21:19:34.308Z,14.57
2022-10-16T21:22:37.596Z,14.17
2022-10-16T21:25:40.851Z,12.53
2022-10-16T21:28:44.081Z,14.50
2022-10-16T21:31:48.892Z,17.47
2022-10-16T21:34:52.151Z,12.70
2022-10-16T21:37:55.453Z,18.80
2022-10-16T21:40:58.694Z,15.97
2022-10-16T21:44:02.674Z,13.77
2022-10-16T21:47:07.316Z,14.83
2022-10-16T21:50:11.034Z,11.73
2022-10-16T21:53:14.248Z,17.93
2022-10-16T21:56:18.907Z,17.30
2022-10-16T21:59:22.278Z,19.37
2022-10-16T22:02:26.987Z,19.40
2022-10-16T22:05:30.140Z,16.77
2022-10-16T22:08:34.395Z,16.83
2022-10-16T22:11:39.441Z,16.63
2022-10-16T22:14:42.685Z,14.60
2022-10-16T22:17:47.304Z,17.57
2022-10-16T22:20:50.603Z,20.70
2022-10-16T22:23:53.795Z,17.73
2022-10-16T22:26:57.088Z,19.20
2022-10-16T22:30:00.282Z,20.40
2022-10-16T22:33:05.626Z,17.30
2022-10-16T22:36:12.516Z,23.20
2022-10-16T22:39:15.700Z,22.40
2022-10-16T22:42:19.027Z,21.20
2022-10-16T22:45:22.199Z,22.60
2022-10-16T22:48:26.856Z,20.77
2022-10-16T22:51:30.226Z,23.00
2022-10-16T22:54:33.460Z,21.13
2022-10-16T22:57:36.703Z,22.23
2022-10-16T23:00:42.581Z,22.83
2022-10-16T23:03:47.390Z,21.93
2022-10-16T23:06:50.593Z,24.07
2022-10-16T23:09:54.802Z,26.17
2022-10-16T23:12:58.076Z,21.80
2022-10-16T23:16:01.317Z,26.30
2022-10-16T23:19:06.042Z,27.87
2022-10-16T23:22:09.258Z,28.97
2022-10-16T23:25:12.507Z,22.93
2022-10-16T23:31:24.524Z,27.57
2022-10-16T23:34:29.136Z,32.87
2022-10-16T23:37:32.372Z,26.60
2022-10-16T23:40:35.692Z,26.23
2022-10-16T23:43:39.259Z,24.43
2022-10-16T23:46:42.504Z,27.00
2022-10-16T23:49:47.158Z,27.77
2022-10-16T23:52:50.442Z,28.30
2022-10-16T23:55:53.714Z,23.10
2022-10-16T23:58:56.900Z,29.27
